Andover, Virginia
Current Conditions -  °F | °C
As of 6:55 PM on Wednesday 22 Oct 2014 (Local Time) from KLNP Reporting Station
Haze Haze  
Wind Chill: 40°   Ceiling: 400
Heat Index: 43°   Visibility: 4mi
Dew Point: 43°   Wind: 5mph
Humidity: 100%   Direction: 330°NNW
Pressure: 30.21"   Gusts: NA
Location:  36.92°N, 82.8°W
Report Text: KLNP 222255Z AUTO 33004KT 4SM BR OVC004 06/06 A3021 RMK AO2
Loading
Personal Weather Stations






























Interactive Weather Map
Tropical Storm Tracking
New forecast layout! Learn more

10-Day Weather Forecast

Advertisements
Track Severe Weather on mobile